createdAt,value
2018-04-25T00:00:17.787Z,6.20
2018-04-25T00:01:16.761Z,6.40
2018-04-25T00:02:22.579Z,6.40
2018-04-25T00:03:16.699Z,6.60
2018-04-25T00:08:55.002Z,5.30
2018-04-25T00:09:54.968Z,6.00
2018-04-25T00:10:54.937Z,5.30
2018-04-25T00:11:54.899Z,4.60
2018-04-25T00:12:54.883Z,4.30
2018-04-25T00:13:54.885Z,4.20
2018-04-25T00:14:55.881Z,4.00
2018-04-25T00:15:54.835Z,4.40
2018-04-25T00:16:54.781Z,4.80
2018-04-25T00:17:54.755Z,5.00
2018-04-25T00:18:54.722Z,4.60
2018-04-25T00:19:54.711Z,4.60
2018-04-25T00:20:54.700Z,4.80
2018-04-25T00:21:54.662Z,5.50
2018-04-25T00:22:54.650Z,5.10
2018-04-25T00:23:54.604Z,5.50
2018-04-25T00:24:54.595Z,5.80
2018-04-25T00:25:54.568Z,5.60
2018-04-25T00:26:54.554Z,5.60
2018-04-25T00:27:54.522Z,5.70
2018-04-25T00:28:54.501Z,6.60
2018-04-25T00:29:54.468Z,6.30
2018-04-25T00:30:54.442Z,6.40
2018-04-25T00:31:54.397Z,5.90
2018-04-25T00:32:54.379Z,5.80
2018-04-25T00:33:54.359Z,6.10
2018-04-25T00:34:54.337Z,6.00
2018-04-25T00:35:54.299Z,5.50
2018-04-25T00:36:54.278Z,6.20
2018-04-25T00:37:54.239Z,6.00
2018-04-25T00:38:54.225Z,5.90
2018-04-25T00:39:54.203Z,5.90
2018-04-25T00:40:54.170Z,5.40
2018-04-25T00:41:54.157Z,5.30
2018-04-25T00:42:54.216Z,5.10
2018-04-25T00:43:54.083Z,5.20
2018-04-25T00:44:54.093Z,5.00
2018-04-25T00:45:54.034Z,5.30
2018-04-25T00:46:54.036Z,5.50
2018-04-25T00:47:54.014Z,5.60
2018-04-25T00:48:53.980Z,5.60
2018-04-25T00:49:53.969Z,5.60
2018-04-25T00:50:53.930Z,6.30
2018-04-25T00:51:53.896Z,6.50
2018-04-25T00:52:53.878Z,5.40
2018-04-25T00:53:53.849Z,5.10
2018-04-25T00:54:54.820Z,5.20
2018-04-25T00:55:53.806Z,4.50
2018-04-25T00:56:53.760Z,4.50
2018-04-25T00:57:53.738Z,4.00
2018-04-25T00:58:53.710Z,4.00
2018-04-25T00:59:53.710Z,4.60
2018-04-25T01:00:53.664Z,5.10
2018-04-25T01:01:53.627Z,5.50
2018-04-25T01:02:53.600Z,5.30
2018-04-25T01:03:53.599Z,5.10
2018-04-25T01:04:53.565Z,5.90
2018-04-25T01:05:53.530Z,6.10
2018-04-25T01:06:53.513Z,5.80
2018-04-25T01:07:53.476Z,5.80
2018-04-25T01:08:53.467Z,6.30
2018-04-25T01:09:53.431Z,6.30
2018-04-25T01:10:53.398Z,6.70
2018-04-25T01:11:53.471Z,5.90
2018-04-25T01:12:53.363Z,6.00
2018-04-25T01:13:53.326Z,5.80
2018-04-25T01:14:53.301Z,6.20
2018-04-25T01:15:53.289Z,5.00
2018-04-25T01:16:53.264Z,5.50
2018-04-25T01:17:53.241Z,6.00
2018-04-25T01:18:53.197Z,5.30
2018-04-25T01:19:53.169Z,6.40
2018-04-25T01:20:54.139Z,6.60
2018-04-25T01:21:53.126Z,7.30
2018-04-25T01:22:53.114Z,6.70
2018-04-25T01:23:53.086Z,7.10
2018-04-25T01:24:53.065Z,7.00
2018-04-25T01:25:53.022Z,7.00
2018-04-25T01:26:53.007Z,6.40
2018-04-25T01:27:52.953Z,6.30
2018-04-25T01:28:52.952Z,6.40
2018-04-25T01:29:52.908Z,5.40
2018-04-25T01:30:52.894Z,5.50
2018-04-25T01:31:52.888Z,6.90
2018-04-25T01:32:52.863Z,6.90
2018-04-25T01:33:52.818Z,7.00
2018-04-25T01:34:52.804Z,7.40
2018-04-25T01:35:52.760Z,6.90
2018-04-25T01:36:52.731Z,6.80
2018-04-25T01:37:52.699Z,6.60
2018-04-25T01:38:52.699Z,7.30
2018-04-25T01:39:52.658Z,6.40
2018-04-25T01:40:52.634Z,6.20
2018-04-25T01:41:52.605Z,5.50
2018-04-25T01:42:52.583Z,5.90
2018-04-25T01:43:52.570Z,6.10
2018-04-25T01:44:52.549Z,5.90
2018-04-25T01:45:52.512Z,6.00
2018-04-25T01:46:52.472Z,7.10
2018-04-25T01:47:52.454Z,6.50
2018-04-25T01:48:52.415Z,6.30
2018-04-25T01:49:52.392Z,7.10
2018-04-25T01:50:52.372Z,6.70
2018-04-25T01:51:52.360Z,6.40
2018-04-25T01:52:52.323Z,6.20
2018-04-25T01:53:52.305Z,5.60
2018-04-25T01:54:52.277Z,6.20
2018-04-25T01:55:52.261Z,6.10
2018-04-25T01:56:53.223Z,6.00
2018-04-25T01:57:52.196Z,6.60
2018-04-25T01:58:52.174Z,5.80
2018-04-25T01:59:52.166Z,4.90
2018-04-25T02:00:52.130Z,5.80
2018-04-25T02:01:52.094Z,5.90
2018-04-25T02:02:52.063Z,7.00
2018-04-25T02:03:52.067Z,6.50
2018-04-25T02:04:52.013Z,6.30
2018-04-25T02:05:51.980Z,6.10
2018-04-25T02:06:51.982Z,5.40
2018-04-25T02:07:51.927Z,4.60
2018-04-25T02:08:51.921Z,5.30
2018-04-25T02:09:51.898Z,5.10
2018-04-25T02:10:51.871Z,5.50
2018-04-25T02:11:51.834Z,6.10
2018-04-25T02:12:51.818Z,5.70
2018-04-25T02:13:51.779Z,5.20
2018-04-25T02:14:51.761Z,5.00
2018-04-25T02:15:51.754Z,4.80
2018-04-25T02:16:51.716Z,5.10
2018-04-25T02:17:51.675Z,5.00
2018-04-25T02:18:51.711Z,5.20
2018-04-25T02:19:51.636Z,5.70
2018-04-25T02:20:51.638Z,8.20
2018-04-25T02:21:51.604Z,6.80
2018-04-25T02:22:52.580Z,5.70
2018-04-25T02:23:51.537Z,6.50
2018-04-25T02:24:53.519Z,5.80
2018-04-25T02:25:51.478Z,6.50
2018-04-25T02:26:51.483Z,5.80
2018-04-25T02:27:51.422Z,5.90
2018-04-25T02:28:53.418Z,5.40
2018-04-25T02:29:51.377Z,4.90
2018-04-25T02:30:53.360Z,5.30
2018-04-25T02:31:51.337Z,5.70
2018-04-25T02:33:07.244Z,5.60
2018-04-25T02:33:51.262Z,5.70
2018-04-25T02:34:51.240Z,6.40
2018-04-25T02:35:51.213Z,5.80
2018-04-25T02:36:52.199Z,7.50
2018-04-25T02:37:51.205Z,6.90
2018-04-25T02:39:01.737Z,6.80
2018-04-25T02:39:51.114Z,5.50
2018-04-25T02:40:55.751Z,6.00
2018-04-25T02:41:51.086Z,6.80
2018-04-25T02:42:51.071Z,6.30
2018-04-25T02:43:51.029Z,6.50
2018-04-25T02:45:01.751Z,6.30
2018-04-25T02:45:50.954Z,6.00
2018-04-25T02:46:50.927Z,7.50
2018-04-25T02:47:50.917Z,6.30
2018-04-25T02:48:52.903Z,6.40
2018-04-25T02:49:50.863Z,7.00
2018-04-25T02:50:51.829Z,7.00
2018-04-25T02:51:50.812Z,6.40
2018-04-25T02:52:50.821Z,7.00
2018-04-25T02:53:50.748Z,6.80
2018-04-25T02:54:51.740Z,6.70
2018-04-25T02:55:50.695Z,7.00
2018-04-25T02:56:50.681Z,9.20
2018-04-25T02:57:50.653Z,6.80
2018-04-25T02:58:50.671Z,6.60
2018-04-25T02:59:50.599Z,6.90
2018-04-25T03:00:50.578Z,7.40
2018-04-25T03:01:50.545Z,8.50
2018-04-25T03:02:51.530Z,6.70
2018-04-25T03:03:50.488Z,6.70
2018-04-25T03:04:50.491Z,6.50
2018-04-25T03:05:50.466Z,6.80
2018-04-25T03:06:50.437Z,6.80
2018-04-25T03:07:50.394Z,7.50
2018-04-25T03:08:50.372Z,7.20
2018-04-25T03:09:50.348Z,7.10
2018-04-25T03:10:50.355Z,7.40
2018-04-25T03:11:50.281Z,7.50
2018-04-25T03:12:50.288Z,7.30
2018-04-25T03:13:50.230Z,6.90
2018-04-25T03:14:50.218Z,7.40
2018-04-25T03:15:50.209Z,6.90
2018-04-25T03:16:50.227Z,6.00
2018-04-25T03:17:50.144Z,7.90
2018-04-25T03:18:50.126Z,7.00
2018-04-25T03:19:50.096Z,7.20
2018-04-25T03:20:50.068Z,7.80
2018-04-25T03:21:50.038Z,8.80
2018-04-25T03:22:50.031Z,7.50
2018-04-25T03:23:50.029Z,7.70
2018-04-25T03:25:13.762Z,7.10
2018-04-25T03:25:49.953Z,7.60
2018-04-25T03:26:49.940Z,7.70
2018-04-25T05:02:45.238Z,3.70
2018-04-25T05:03:43.282Z,3.80
2018-04-25T05:04:43.273Z,3.90
2018-04-25T05:05:43.235Z,3.40
2018-04-25T05:06:43.218Z,3.60
2018-04-25T05:07:43.182Z,3.20
2018-04-25T05:08:43.257Z,3.20
2018-04-25T05:09:43.132Z,3.60
2018-04-25T05:10:43.122Z,3.70
2018-04-25T05:11:43.089Z,3.60
2018-04-25T05:12:43.070Z,3.40
2018-04-25T05:13:43.069Z,3.80
2018-04-25T05:14:43.009Z,3.50
2018-04-25T05:15:42.985Z,3.20
2018-04-25T05:16:42.977Z,3.20
2018-04-25T05:17:42.924Z,3.20
2018-04-25T05:18:42.891Z,3.30
2018-04-25T05:19:42.903Z,3.30
2018-04-25T05:20:42.848Z,3.50
2018-04-25T05:21:42.833Z,3.60
2018-04-25T05:22:42.798Z,3.90
2018-04-25T05:23:42.776Z,3.70
2018-04-25T05:24:42.773Z,3.00
2018-04-25T05:25:42.738Z,3.20
2018-04-25T05:26:42.710Z,3.40
2018-04-25T05:27:42.680Z,3.60
2018-04-25T05:28:42.661Z,3.30
2018-04-25T05:29:42.624Z,3.50
2018-04-25T05:30:42.596Z,3.40
2018-04-25T05:31:42.635Z,3.10
2018-04-25T05:32:42.555Z,3.10
2018-04-25T05:33:42.596Z,2.90
2018-04-25T05:34:42.521Z,2.80
2018-04-25T05:35:42.579Z,3.90
2018-04-25T05:36:42.434Z,4.70
2018-04-25T05:37:42.477Z,3.40
2018-04-25T05:38:42.435Z,3.20
2018-04-25T05:39:42.487Z,2.90
2018-04-25T05:40:42.353Z,2.80
2018-04-25T05:41:42.397Z,2.70
2018-04-25T05:42:42.367Z,3.70
2018-04-25T05:43:42.325Z,3.50
2018-04-25T05:44:42.267Z,3.20
2018-04-25T05:45:42.205Z,3.40
2018-04-25T05:46:42.240Z,3.00
2018-04-25T05:47:42.151Z,3.20
2018-04-25T05:48:42.274Z,2.80
2018-04-25T05:49:42.128Z,2.90
2018-04-25T05:50:43.180Z,3.00
2018-04-25T05:51:42.160Z,3.30
2018-04-25T05:52:42.063Z,3.00
2018-04-25T05:53:42.020Z,3.30
2018-04-25T05:54:42.106Z,2.90
2018-04-25T05:55:41.946Z,3.00
2018-04-25T05:56:41.984Z,2.40
2018-04-25T05:57:41.928Z,3.40
2018-04-25T05:58:41.931Z,2.00
2018-04-25T05:59:41.869Z,2.20
2018-04-25T06:00:41.857Z,2.40
2018-04-25T06:01:41.775Z,2.60
2018-04-25T06:02:41.843Z,2.20
2018-04-25T06:03:41.728Z,2.30
2018-04-25T06:04:41.786Z,2.20
2018-04-25T06:05:41.690Z,2.30
2018-04-25T06:06:41.763Z,2.40
2018-04-25T06:07:41.656Z,2.20
2018-04-25T06:09:14.225Z,2.50
2018-04-25T06:09:41.581Z,2.80
2018-04-25T06:10:41.557Z,2.20
2018-04-25T06:11:54.276Z,2.40
2018-04-25T06:12:41.506Z,2.30
2018-04-25T06:13:47.220Z,2.40
2018-04-25T06:14:41.467Z,2.40
2018-04-25T06:15:47.250Z,2.00
2018-04-25T06:16:41.419Z,2.50
2018-04-25T06:17:57.307Z,1.90
2018-04-25T06:18:41.369Z,2.10
2018-04-25T06:19:41.446Z,2.00
2018-04-25T06:20:41.353Z,2.20
2018-04-25T06:21:52.311Z,2.40
2018-04-25T06:22:41.252Z,2.60
2018-04-25T06:23:41.271Z,2.10
2018-04-25T06:24:41.204Z,2.10
2018-04-25T06:26:02.253Z,2.60
2018-04-25T06:26:41.155Z,2.40
2018-04-25T06:27:43.249Z,2.60
2018-04-25T06:28:41.119Z,2.60
2018-04-25T06:29:41.185Z,2.60
2018-04-25T06:30:41.098Z,2.80
2018-04-25T06:31:41.015Z,2.50
2018-04-25T06:32:41.010Z,2.30
2018-04-25T06:33:45.720Z,2.50
2018-04-25T06:34:40.976Z,3.00
2018-04-25T06:35:45.734Z,2.30
2018-04-25T06:36:40.913Z,2.80
2018-04-25T06:37:41.977Z,2.90
2018-04-25T06:38:40.826Z,2.80
2018-04-25T06:39:41.867Z,2.60
2018-04-25T06:40:40.786Z,2.90
2018-04-25T06:41:41.799Z,2.80
2018-04-25T06:42:40.749Z,2.80
2018-04-25T06:43:52.761Z,2.80
2018-04-25T06:44:40.701Z,2.90
2018-04-25T06:45:41.723Z,2.80
2018-04-25T06:46:40.658Z,3.00
2018-04-25T06:47:40.713Z,2.70
2018-04-25T06:48:40.595Z,2.60
2018-04-25T06:49:40.622Z,2.90
2018-04-25T06:50:40.606Z,2.50
2018-04-25T06:51:40.589Z,2.70
2018-04-25T06:52:40.473Z,2.80
2018-04-25T06:53:40.479Z,2.70
2018-04-25T06:54:40.538Z,2.80
2018-04-25T06:55:40.417Z,3.00
2018-04-25T06:56:40.496Z,3.10
2018-04-25T06:57:40.359Z,2.90
2018-04-25T06:59:02.324Z,3.20
2018-04-25T06:59:40.310Z,3.30
2018-04-25T07:00:40.288Z,4.20
2018-04-25T07:01:40.328Z,3.30
2018-04-25T07:02:40.221Z,3.70
2018-04-25T07:03:41.833Z,3.60
2018-04-25T07:04:41.217Z,3.10
2018-04-25T07:05:40.151Z,2.90
2018-04-25T07:06:40.226Z,3.00
2018-04-25T07:07:40.084Z,3.30
2018-04-25T07:08:44.746Z,3.10
2018-04-25T07:09:40.024Z,3.50
2018-04-25T07:10:40.022Z,3.50
2018-04-25T07:11:40.017Z,3.10
2018-04-25T07:12:40.961Z,3.10
2018-04-25T07:13:39.934Z,3.30
2018-04-25T07:14:39.991Z,4.20
2018-04-25T07:15:45.849Z,3.70
2018-04-25T07:16:39.860Z,3.50
2018-04-25T07:17:39.874Z,3.30
2018-04-25T07:18:39.850Z,3.70
2018-04-25T07:19:39.791Z,3.00
2018-04-25T07:20:39.773Z,3.50
2018-04-25T07:21:39.805Z,3.70
2018-04-25T07:22:39.712Z,3.60
2018-04-25T07:23:40.735Z,3.10
2018-04-25T07:24:39.653Z,2.80
2018-04-25T07:25:40.675Z,3.40
2018-04-25T07:26:39.612Z,3.70
2018-04-25T07:27:39.633Z,3.70
2018-04-25T07:28:39.533Z,3.40
2018-04-25T07:29:39.552Z,3.50
2018-04-25T07:30:39.508Z,4.00
2018-04-25T07:31:40.460Z,3.70
2018-04-25T07:32:39.444Z,3.40
2018-04-25T07:33:39.455Z,3.50
2018-04-25T07:34:39.389Z,3.10
2018-04-25T07:36:12.303Z,3.50
2018-04-25T07:36:39.345Z,4.40
2018-04-25T07:37:54.305Z,4.60
2018-04-25T07:38:39.293Z,4.00
2018-04-25T08:03:42.515Z,4.80
2018-04-25T08:04:10.605Z,4.00
2018-04-25T08:36:15.693Z,3.30
2018-04-25T08:37:12.932Z,3.90
2018-04-25T08:38:12.636Z,3.70
2018-04-25T08:39:19.315Z,3.80
2018-04-25T08:40:12.644Z,3.20
2018-04-25T08:45:12.841Z,4.80
2018-04-25T08:46:08.952Z,3.60
2018-04-25T08:46:52.957Z,3.30
2018-04-25T08:48:13.915Z,3.50
2018-04-25T08:48:52.867Z,4.50
2018-04-25T08:49:52.906Z,3.20
2018-04-25T08:50:52.817Z,5.00
2018-04-25T08:51:52.818Z,3.40
2018-04-25T08:52:52.786Z,2.70
2018-04-25T08:53:52.755Z,2.70
2018-04-25T08:54:52.740Z,2.90
2018-04-25T08:55:52.759Z,2.90
2018-04-25T08:56:52.705Z,3.40
2018-04-25T08:57:53.695Z,3.00
2018-04-25T08:58:52.636Z,2.60
2018-04-25T08:59:52.613Z,2.60
2018-04-25T09:00:53.597Z,2.50
2018-04-25T09:01:52.546Z,2.60
2018-04-25T09:02:53.631Z,2.40
2018-04-25T09:03:52.525Z,2.50
2018-04-25T09:04:52.511Z,3.10
2018-04-25T09:05:52.534Z,3.20
2018-04-25T09:06:52.504Z,2.50
2018-04-25T09:07:52.399Z,3.40
2018-04-25T09:08:53.459Z,2.80
2018-04-25T09:09:52.376Z,3.60
2018-04-25T09:10:52.334Z,3.80
2018-04-25T09:11:52.385Z,2.30
2018-04-25T09:12:52.272Z,2.20
2018-04-25T09:13:53.316Z,2.00
2018-04-25T09:14:52.232Z,2.30
2018-04-25T09:15:56.900Z,2.50
2018-04-25T09:16:52.152Z,2.00
2018-04-25T09:17:52.157Z,3.40
2018-04-25T09:18:52.134Z,4.70
2018-04-25T09:19:53.101Z,3.00
2018-04-25T09:20:52.050Z,2.40
2018-04-25T09:21:52.074Z,2.60
2018-04-25T09:22:52.044Z,2.30
2018-04-25T09:23:54.068Z,2.10
2018-04-25T09:24:51.954Z,2.90
2018-04-25T09:25:52.006Z,2.40
2018-04-25T09:26:53.980Z,2.80
2018-04-25T09:27:51.875Z,2.30
2018-04-25T09:28:51.866Z,2.30
2018-04-25T09:29:51.812Z,2.60
2018-04-25T09:30:51.811Z,2.90
2018-04-25T09:31:51.767Z,2.60
2018-04-25T09:32:51.739Z,3.30
2018-04-25T09:33:51.743Z,2.20
2018-04-25T09:34:51.703Z,2.40
2018-04-25T09:35:56.398Z,2.30
2018-04-25T09:36:51.639Z,3.50
2018-04-25T09:37:51.671Z,2.50
2018-04-25T09:38:51.598Z,2.10
2018-04-25T09:39:51.596Z,2.30
2018-04-25T09:40:51.543Z,2.80
2018-04-25T09:41:51.536Z,2.50
2018-04-25T09:42:51.496Z,2.30
2018-04-25T09:43:51.470Z,2.70
2018-04-25T09:44:51.459Z,2.70
2018-04-25T09:45:51.450Z,3.70
2018-04-25T09:46:51.440Z,2.30
2018-04-25T09:47:51.391Z,2.20
2018-04-25T09:48:51.345Z,1.90
2018-04-25T09:49:51.312Z,2.20
2018-04-25T09:50:51.306Z,2.20
2018-04-25T09:51:51.369Z,2.20
2018-04-25T09:52:51.292Z,3.00
2018-04-25T09:53:51.267Z,2.10
2018-04-25T09:54:51.279Z,2.20
2018-04-25T09:55:51.190Z,2.50
2018-04-25T09:56:51.144Z,3.40
2018-04-25T09:57:51.173Z,2.00
2018-04-25T09:58:51.087Z,1.90
2018-04-25T09:59:51.061Z,2.50
2018-04-25T10:00:51.070Z,2.80
2018-04-25T10:01:51.037Z,2.50
2018-04-25T10:02:51.053Z,3.40
2018-04-25T10:03:51.018Z,2.50
2018-04-25T10:04:51.063Z,2.30
2018-04-25T10:05:50.927Z,2.40
2018-04-25T10:06:50.969Z,2.10
2018-04-25T10:07:50.883Z,2.20
2018-04-25T10:08:51.927Z,2.90
2018-04-25T10:09:50.844Z,2.30
2018-04-25T10:10:51.958Z,2.30
2018-04-25T10:11:50.785Z,3.80
2018-04-25T10:12:50.810Z,2.90
2018-04-25T10:13:50.715Z,2.50
2018-04-25T10:14:50.701Z,2.70
2018-04-25T10:15:50.664Z,4.20
2018-04-25T10:16:50.688Z,3.20
2018-04-25T10:17:51.780Z,2.40
2018-04-25T10:18:50.592Z,4.20
2018-04-25T10:19:50.574Z,2.20
2018-04-25T10:20:50.666Z,3.20
2018-04-25T10:21:50.558Z,3.70
2018-04-25T10:22:50.571Z,4.10
2018-04-25T10:23:50.466Z,2.60
2018-04-25T10:24:50.464Z,2.70
2018-04-25T10:25:50.434Z,2.20
2018-04-25T10:26:50.489Z,2.80
2018-04-25T10:27:50.409Z,2.80
2018-04-25T10:28:50.431Z,2.60
2018-04-25T10:29:50.336Z,2.30
2018-04-25T10:30:50.352Z,2.40
2018-04-25T10:31:50.254Z,2.80
2018-04-25T10:32:50.389Z,2.00
2018-04-25T10:33:50.206Z,3.50
2018-04-25T10:34:50.284Z,2.30
2018-04-25T10:35:50.185Z,2.40
2018-04-25T10:37:22.845Z,2.40
2018-04-25T10:37:50.118Z,2.20
2018-04-25T10:38:50.109Z,2.50
2018-04-25T10:40:17.887Z,2.40
2018-04-25T10:40:50.033Z,2.10
2018-04-25T10:41:50.126Z,2.40
2018-04-25T10:42:50.010Z,2.40
2018-04-25T10:44:25.864Z,3.00
2018-04-25T10:44:49.949Z,2.30
2018-04-25T10:45:49.916Z,2.90
2018-04-25T10:47:15.860Z,2.40
2018-04-25T10:47:49.850Z,2.70
2018-04-25T10:49:18.050Z,2.10
2018-04-25T10:49:49.880Z,7.30
2018-04-25T10:50:49.783Z,3.00
2018-04-25T10:51:49.894Z,3.00
2018-04-25T10:52:49.749Z,2.70
2018-04-25T10:54:25.395Z,2.00
2018-04-25T10:54:49.698Z,2.90
2018-04-25T10:55:49.728Z,2.00
2018-04-25T10:57:11.754Z,2.30
2018-04-25T10:57:49.627Z,1.50
2018-04-25T10:58:49.680Z,1.60
2018-04-25T10:59:49.557Z,2.80
2018-04-25T11:00:49.530Z,4.90
2018-04-25T11:01:49.561Z,2.20
2018-04-25T11:02:49.536Z,2.70
2018-04-25T11:03:49.473Z,2.20
2018-04-25T11:04:49.472Z,2.70
2018-04-25T11:05:49.475Z,3.10
2018-04-25T11:06:49.388Z,2.10
2018-04-25T11:07:49.410Z,2.60
2018-04-25T11:08:49.373Z,2.40
2018-04-25T11:09:49.326Z,2.40
2018-04-25T11:10:49.309Z,2.20
2018-04-25T11:11:49.281Z,2.70
2018-04-25T11:12:49.243Z,2.70
2018-04-25T11:13:49.263Z,2.70
2018-04-25T11:14:49.170Z,2.70
2018-04-25T11:15:49.176Z,2.80
2018-04-25T11:16:49.135Z,2.60
2018-04-25T11:17:49.114Z,2.80
2018-04-25T11:18:49.123Z,2.00
2018-04-25T11:19:49.047Z,3.20
2018-04-25T11:20:50.062Z,2.20
2018-04-25T11:21:49.037Z,2.60
2018-04-25T11:22:48.982Z,2.30
2018-04-25T11:23:48.950Z,2.20
2018-04-25T11:24:48.956Z,2.00
2018-04-25T11:25:48.892Z,2.00
2018-04-25T11:26:48.902Z,2.50
2018-04-25T11:27:49.312Z,2.10
2018-04-25T11:28:48.822Z,2.30
2018-04-25T11:29:48.818Z,2.80
2018-04-25T11:30:48.759Z,3.80
2018-04-25T11:31:48.977Z,2.50
2018-04-25T11:32:48.735Z,2.70
2018-04-25T11:33:49.850Z,2.50
2018-04-25T11:34:48.680Z,2.50
2018-04-25T11:35:48.639Z,2.60
2018-04-25T11:36:48.716Z,2.80
2018-04-25T11:37:48.596Z,3.50
2018-04-25T11:38:49.665Z,2.30
2018-04-25T11:39:48.570Z,3.40
2018-04-25T11:40:48.518Z,2.90
2018-04-25T11:41:48.736Z,2.50
2018-04-25T11:42:48.528Z,2.80
2018-04-25T11:43:48.597Z,2.20
2018-04-25T11:44:48.446Z,3.10
2018-04-25T11:45:48.410Z,3.30
2018-04-25T11:46:48.390Z,2.50
2018-04-25T11:47:49.579Z,2.50
2018-04-25T11:48:48.331Z,2.90
2018-04-25T11:49:48.381Z,2.60
2018-04-25T11:50:48.261Z,2.10
2018-04-25T11:51:48.268Z,1.80
2018-04-25T11:52:48.239Z,2.10
2018-04-25T11:53:48.487Z,2.40
2018-04-25T11:54:48.173Z,2.40
2018-04-25T11:55:48.162Z,2.30
2018-04-25T11:56:48.109Z,3.40
2018-04-25T11:57:48.267Z,3.70
2018-04-25T11:58:48.055Z,2.60
2018-04-25T11:59:48.171Z,2.40
2018-04-25T12:00:48.038Z,3.20
2018-04-25T12:01:48.164Z,3.10
2018-04-25T12:02:48.035Z,2.70
2018-04-25T12:03:49.113Z,3.20
2018-04-25T12:04:47.917Z,3.90
2018-04-25T12:05:47.986Z,3.50
2018-04-25T12:06:47.921Z,2.90
2018-04-25T12:07:47.900Z,2.70
2018-04-25T12:08:47.803Z,3.20
2018-04-25T12:09:47.785Z,3.30
2018-04-25T12:10:47.829Z,5.80
2018-04-25T12:11:47.726Z,4.00
2018-04-25T12:12:47.752Z,3.20
2018-04-25T12:13:47.697Z,4.70
2018-04-25T12:14:47.756Z,3.10
2018-04-25T12:15:47.652Z,2.50
2018-04-25T12:16:47.666Z,2.10
2018-04-25T12:17:47.616Z,3.10
2018-04-25T12:18:47.643Z,3.10
2018-04-25T12:19:47.526Z,3.40
2018-04-25T12:20:47.581Z,3.00
2018-04-25T12:21:47.481Z,3.00
2018-04-25T12:22:47.496Z,2.70
2018-04-25T12:23:47.429Z,2.90
2018-04-25T12:24:47.538Z,3.10
2018-04-25T12:25:47.395Z,3.40
2018-04-25T12:26:47.415Z,2.90
2018-04-25T12:27:47.327Z,3.20
2018-04-25T12:28:47.297Z,3.90
2018-04-25T12:29:47.364Z,2.90
2018-04-25T12:30:47.290Z,3.10
2018-04-25T12:31:47.252Z,2.80
2018-04-25T12:32:47.209Z,3.10
2018-04-25T12:33:47.184Z,3.20
2018-04-25T12:34:47.160Z,4.10
2018-04-25T12:35:47.185Z,3.00
2018-04-25T12:36:47.195Z,3.00
2018-04-25T12:37:47.097Z,3.10
2018-04-25T12:38:47.093Z,2.80
2018-04-25T12:39:47.037Z,3.30
2018-04-25T12:40:47.113Z,3.00
2018-04-25T12:41:46.975Z,3.10
2018-04-25T12:42:47.050Z,2.70
2018-04-25T12:43:47.221Z,2.70
2018-04-25T12:44:47.032Z,3.20
2018-04-25T12:45:46.925Z,3.50
2018-04-25T12:46:46.861Z,3.30
2018-04-25T12:47:46.842Z,3.40
2018-04-25T12:48:46.828Z,3.20
2018-04-25T12:49:46.778Z,2.90
2018-04-25T12:50:46.777Z,3.80
2018-04-25T12:51:46.732Z,3.50
2018-04-25T12:52:46.771Z,3.70
2018-04-25T12:53:46.674Z,3.80
2018-04-25T12:54:47.438Z,3.90
2018-04-25T12:55:46.636Z,3.30
2018-04-25T12:56:46.607Z,3.80
2018-04-25T12:57:46.601Z,3.40
2018-04-25T12:58:46.616Z,3.00
2018-04-25T12:59:46.523Z,4.00
2018-04-25T13:00:46.550Z,3.20
2018-04-25T13:01:46.550Z,3.50
2018-04-25T13:02:46.536Z,3.20
2018-04-25T13:03:46.533Z,2.70
2018-04-25T13:04:47.489Z,3.10
2018-04-25T13:05:46.400Z,3.70
2018-04-25T13:06:46.369Z,3.70
2018-04-25T13:07:46.337Z,4.50
2018-04-25T13:08:46.376Z,4.70
2018-04-25T13:09:46.280Z,3.50
2018-04-25T13:10:47.350Z,3.50
2018-04-25T13:11:46.251Z,3.00
2018-04-25T13:12:46.306Z,3.50
2018-04-25T13:13:46.149Z,4.20
2018-04-25T13:14:46.277Z,6.00
2018-04-25T13:15:46.124Z,2.80
2018-04-25T13:16:47.176Z,4.90
2018-04-25T13:17:46.060Z,3.40
2018-04-25T13:19:23.935Z,3.50
2018-04-25T13:19:46.021Z,3.70
2018-04-25T13:20:46.014Z,3.70
2018-04-25T13:21:47.051Z,3.40
2018-04-25T13:22:45.936Z,3.80
2018-04-25T13:23:56.899Z,3.90
2018-04-25T13:24:45.895Z,4.00
2018-04-25T13:25:50.444Z,4.10
2018-04-25T13:26:45.915Z,4.10
2018-04-25T13:27:47.892Z,4.30
2018-04-25T13:28:45.786Z,4.00
2018-04-25T13:29:51.492Z,4.20
2018-04-25T13:30:45.775Z,4.50
2018-04-25T13:32:13.429Z,4.50
2018-04-25T13:32:45.699Z,3.80
2018-04-25T13:33:45.788Z,4.10
2018-04-25T13:34:45.649Z,3.70
2018-04-25T13:35:57.441Z,3.40
2018-04-25T13:36:45.665Z,3.60
2018-04-25T13:37:50.495Z,3.90
2018-04-25T13:38:45.532Z,4.00
2018-04-25T13:39:51.461Z,5.90
2018-04-25T13:40:45.509Z,4.20
2018-04-25T14:50:08.192Z,3.50
2018-04-25T14:51:23.871Z,2.80
2018-04-25T14:52:08.066Z,3.70
2018-04-25T14:53:08.095Z,3.50
2018-04-25T14:54:08.108Z,3.60
2018-04-25T14:55:08.074Z,3.70
2018-04-25T14:56:07.977Z,3.70
2018-04-25T14:57:09.047Z,3.30
2018-04-25T14:58:07.970Z,3.40
2018-04-25T14:59:08.936Z,3.40
2018-04-25T15:00:07.864Z,3.20
2018-04-25T15:01:07.949Z,3.70
2018-04-25T15:02:07.849Z,2.80
2018-04-25T15:03:07.840Z,3.00
2018-04-25T15:04:07.765Z,2.90
2018-04-25T15:05:07.865Z,2.60
2018-04-25T15:06:07.761Z,3.20
2018-04-25T15:07:08.795Z,3.50
2018-04-25T15:08:07.659Z,3.10
2018-04-25T15:09:19.357Z,4.50
2018-04-25T15:10:07.632Z,3.30
2018-04-25T15:11:14.383Z,4.30
2018-04-25T15:12:07.601Z,3.50
2018-04-25T15:13:07.603Z,3.40
2018-04-25T15:14:07.532Z,3.40
2018-04-25T15:15:12.327Z,3.30
2018-04-25T15:16:07.462Z,3.50
2018-04-25T15:17:07.593Z,4.00
2018-04-25T15:18:07.424Z,3.60
2018-04-25T15:19:07.465Z,3.60
2018-04-25T15:20:07.428Z,2.90
2018-04-25T15:21:07.440Z,2.90
2018-04-25T15:22:07.343Z,4.40
2018-04-25T15:23:07.299Z,3.80
2018-04-25T15:24:07.382Z,3.40
2018-04-25T15:25:07.337Z,3.50
2018-04-25T15:26:08.277Z,2.80
2018-04-25T15:27:07.209Z,3.10
2018-04-25T15:28:07.251Z,3.40
2018-04-25T15:29:07.159Z,3.40
2018-04-25T15:30:07.131Z,3.80
2018-04-25T15:31:07.143Z,4.50
2018-04-25T15:35:38.860Z,3.70
2018-04-25T15:36:29.287Z,3.80
2018-04-25T15:37:28.760Z,3.80
2018-04-25T15:38:27.464Z,5.70
2018-04-25T15:39:27.524Z,3.50
2018-04-25T15:40:27.366Z,3.50
2018-04-25T15:41:30.289Z,3.60
2018-04-25T15:42:27.409Z,3.30
2018-04-25T15:43:27.290Z,3.30
2018-04-25T15:44:28.357Z,4.10
2018-04-25T15:45:27.251Z,4.20
2018-04-25T15:46:27.255Z,4.00
2018-04-25T15:47:27.205Z,4.30
2018-04-25T15:48:38.929Z,3.70
2018-04-25T15:49:27.141Z,4.30
2018-04-25T15:50:31.872Z,5.30
2018-04-25T15:51:27.100Z,3.50
2018-04-25T15:52:42.851Z,3.20
2018-04-25T15:53:27.082Z,2.80
2018-04-25T15:54:29.175Z,2.90
2018-04-25T15:55:27.011Z,3.10
2018-04-25T15:56:42.917Z,2.70
2018-04-25T15:57:26.944Z,2.70
2018-04-25T15:58:32.867Z,2.90
2018-04-25T15:59:26.972Z,2.70
2018-04-25T16:00:31.868Z,3.10
2018-04-25T16:01:26.881Z,3.10
2018-04-25T16:02:28.924Z,3.00
2018-04-25T16:03:26.803Z,3.40
2018-04-25T16:04:28.902Z,4.10
2018-04-25T16:05:26.770Z,3.70
2018-04-25T16:06:28.836Z,3.10
2018-04-25T16:07:26.728Z,3.00
2018-04-25T16:08:28.721Z,3.80
2018-04-25T16:09:26.650Z,3.80
2018-04-25T16:10:39.394Z,3.50
2018-04-25T16:11:26.591Z,3.60
2018-04-25T16:12:37.337Z,2.80
2018-04-25T16:13:26.550Z,3.10
2018-04-25T16:14:37.350Z,3.50
2018-04-25T16:15:26.509Z,3.50
2018-04-25T16:16:28.577Z,3.80
2018-04-25T16:17:26.434Z,3.30
2018-04-25T16:18:32.396Z,3.40
2018-04-25T16:19:26.406Z,3.10
2018-04-25T16:20:28.399Z,3.40
2018-04-25T16:21:26.337Z,4.20
2018-04-25T16:22:42.021Z,2.90
2018-04-25T16:23:26.317Z,3.30
2018-04-25T16:42:44.868Z,2.40
2018-04-25T16:43:49.316Z,3.00
2018-04-25T16:44:44.764Z,2.30
2018-04-25T16:45:51.411Z,3.90
2018-04-25T16:46:44.709Z,2.30
2018-04-25T16:47:44.738Z,2.20
2018-04-25T16:48:44.628Z,2.20
2018-04-25T17:01:23.266Z,1.80
2018-04-25T17:02:23.094Z,1.70
2018-04-25T17:04:28.271Z,2.30
2018-04-25T17:06:54.774Z,2.30
2018-04-25T17:07:54.783Z,1.90
2018-04-25T17:08:54.741Z,1.70
2018-04-25T17:10:07.691Z,1.90
2018-04-25T17:10:54.697Z,2.00
2018-04-25T17:12:01.194Z,1.80
2018-04-25T17:12:54.621Z,2.20
2018-04-25T17:14:01.308Z,1.70
2018-04-25T17:14:54.578Z,1.90
2018-04-25T17:15:56.568Z,2.10
2018-04-25T17:16:54.501Z,1.50
2018-04-25T17:18:06.245Z,1.70
2018-04-25T17:18:54.472Z,1.60
2018-04-25T17:20:11.153Z,1.50
2018-04-25T17:20:54.423Z,1.60
2018-04-25T17:22:06.158Z,2.10
2018-04-25T17:22:54.435Z,1.80
2018-04-25T17:24:05.195Z,1.60
2018-04-25T17:24:54.336Z,1.90
2018-04-25T18:26:53.661Z,1.40
2018-04-25T18:27:53.683Z,1.50
2018-04-25T18:28:53.576Z,1.60
2018-04-25T18:29:53.600Z,1.40
2018-04-25T18:30:53.525Z,2.10
2018-04-25T18:31:53.585Z,1.80
2018-04-25T18:32:53.483Z,1.50
2018-04-25T18:33:53.508Z,2.20
2018-04-25T18:34:53.430Z,1.50
2018-04-25T18:35:53.530Z,1.70
2018-04-25T18:36:53.364Z,1.40
2018-04-25T18:37:54.449Z,1.60
2018-04-25T18:38:53.329Z,2.10
2018-04-25T18:39:53.331Z,1.80
2018-04-25T18:40:53.264Z,2.00